Time;durP1;ratioP1;P1;durP2;ratioP2;P2;SDS_P1;SDS_P2;PMS_P1;PMS_P2;Temp;Humidity;BMP_temperature;BMP_pressure;BME280_temperature;BME280_humidity;BME280_pressure;Samples;Min_cycle;Max_cycle;Signal;HPM_P1;HPM_P2
2022/06/20 00:03:00;;;;;;;3.53;1.55;;;;;;;20.47;59.88;98291.75;5102760;28;20054;-64
2022/06/20 00:05:45;;;;;;;3.10;1.88;;;;;;;20.50;59.82;98296.75;5114146;28;20040;-63
2022/06/20 00:08:30;;;;;;;3.40;1.63;;;;;;;20.47;59.62;98289.94;5099908;28;20471;-64
2022/06/20 00:11:36;;;;;;;1.98;1.13;;;;;;;20.45;59.20;98272.53;5095103;28;20047;-64
2022/06/20 00:14:21;;;;;;;5.95;1.42;;;;;;;20.40;59.56;98281.06;5110536;28;20101;-63
2022/06/20 00:17:11;;;;;;;2.63;1.50;;;;;;;20.38;59.88;98278.56;5099636;28;20032;-64
2022/06/20 00:19:55;;;;;;;2.60;1.38;;;;;;;20.37;59.56;98276.09;5071823;28;20085;-63
2022/06/20 00:22:40;;;;;;;3.95;1.40;;;;;;;20.44;59.29;98271.69;5099345;28;20036;-63
2022/06/20 00:25:25;;;;;;;4.10;1.48;;;;;;;20.40;59.67;98265.09;5114141;28;20430;-64
2022/06/20 00:28:12;;;;;;;5.78;1.55;;;;;;;20.41;59.17;98253.44;5098253;28;20043;-63
2022/06/20 00:30:57;;;;;;;2.47;1.85;;;;;;;20.31;59.55;98253.69;5098578;28;20039;-62
2022/06/20 00:33:43;;;;;;;2.05;1.58;;;;;;;20.24;59.94;98240.28;5102634;28;20051;-63
2022/06/20 00:36:28;;;;;;;2.65;1.65;;;;;;;20.25;59.71;98244.63;5113392;28;20665;-63
2022/06/20 00:39:21;;;;;;;2.03;1.50;;;;;;;20.34;59.37;98242.69;5113994;28;20074;-64
2022/06/20 00:42:09;;;;;;;3.30;1.55;;;;;;;20.49;59.32;98241.88;5100733;28;20039;-64
2022/06/20 00:45:13;;;;;;;3.08;1.65;;;;;;;20.32;59.63;98250.03;5100713;28;20085;-63
2022/06/20 00:48:40;;;;;;;3.03;1.63;;;;;;;20.29;59.32;98247.72;5113383;28;20040;-63
2022/06/20 00:51:52;;;;;;;2.72;1.80;;;;;;;20.22;59.81;98250.28;5110698;28;20081;-63
2022/06/20 00:55:15;;;;;;;;;;;;;;;20.09;60.23;98242.91;5111683;28;20031;-64
2022/06/20 00:58:21;;;;;;;1.65;1.50;;;;;;;19.97;60.47;98234.53;5075281;28;19972;-63
2022/06/20 01:01:32;;;;;;;4.40;1.60;;;;;;;19.94;60.79;98232.25;5112920;28;20044;-63
2022/06/20 01:04:43;;;;;;;;;;;;;;;19.93;60.69;98242.03;5081118;28;20040;-63
2022/06/20 01:07:53;;;;;;;2.03;1.42;;;;;;;20.09;60.25;98234.94;5104492;28;19939;-63
2022/06/20 01:11:02;;;;;;;3.70;1.95;;;;;;;19.98;60.17;98235.34;5102367;28;20043;-62
2022/06/20 01:14:38;;;;;;;2.25;1.60;;;;;;;19.81;60.81;98233.66;5100583;28;20047;-62
2022/06/20 01:17:42;;;;;;;2.92;1.63;;;;;;;19.77;60.88;98228.88;5073272;28;20096;-62
2022/06/20 01:20:47;;;;;;;4.20;1.88;;;;;;;19.74;60.59;98224.75;5113074;28;20179;-63
2022/06/20 01:24:23;;;;;;;3.80;1.90;;;;;;;19.81;60.81;98224.88;5099631;28;20027;-63
2022/06/20 01:27:39;;;;;;;3.28;1.75;;;;;;;19.76;61.11;98221.91;5099828;28;20062;-63
2022/06/20 01:30:44;;;;;;;2.03;1.67;;;;;;;19.75;60.80;98212.31;5100894;28;20043;-63
2022/06/20 01:33:49;;;;;;;4.55;1.58;;;;;;;19.61;61.22;98208.56;5090629;28;20039;-63
2022/06/20 01:40:20;;;;;;;2.70;1.67;;;;;;;19.55;61.57;98200.31;5101229;28;20031;-63
2022/06/20 01:43:23;;;;;;;4.50;1.58;;;;;;;19.54;61.73;98200.47;5112654;28;20059;-61
2022/06/20 01:46:29;;;;;;;4.80;1.73;;;;;;;19.52;61.29;98197.19;5109337;28;20490;-63
2022/06/20 01:49:34;;;;;;;1.80;1.45;;;;;;;19.68;61.57;98196.25;5108303;28;20104;-63
2022/06/20 01:52:42;;;;;;;3.10;1.98;;;;;;;19.65;61.17;98196.59;5112832;28;20042;-63
2022/06/20 01:55:50;;;;;;;2.65;2.00;;;;;;;19.55;61.46;98195.00;5090776;28;20446;-63
2022/06/20 01:59:00;;;;;;;1.92;1.52;;;;;;;19.45;62.02;98184.59;5091576;28;20107;-63
2022/06/20 02:02:04;;;;;;;3.00;1.92;;;;;;;19.45;62.14;98179.28;5112351;28;20043;-63
2022/06/20 02:05:12;;;;;;;2.42;1.70;;;;;;;19.45;61.99;98170.53;5111969;28;20035;-64
2022/06/20 02:08:19;;;;;;;2.85;1.67;;;;;;;19.38;62.27;98173.06;5112182;28;20045;-64
2022/06/20 02:11:27;;;;;;;1.88;1.50;;;;;;;19.38;62.21;98177.53;5112599;28;20470;-64
2022/06/20 02:14:37;;;;;;;2.75;1.90;;;;;;;19.33;62.42;98189.50;5099855;28;20039;-63
2022/06/20 02:17:43;;;;;;;5.30;2.00;;;;;;;19.24;62.44;98182.63;5100267;28;20050;-64
2022/06/20 02:20:49;;;;;;;4.13;1.70;;;;;;;19.22;62.64;98187.25;5099512;28;20043;-64
2022/06/20 02:24:00;;;;;;;2.70;1.67;;;;;;;19.25;62.92;98178.13;5111871;28;20040;-64
2022/06/20 02:27:08;;;;;;;3.20;2.03;;;;;;;19.20;62.74;98181.28;5102382;28;20059;-64
2022/06/20 02:30:12;;;;;;;4.72;2.10;;;;;;;19.20;63.35;98186.59;5075177;28;20051;-64
2022/06/20 02:33:28;;;;;;;2.85;2.08;;;;;;;19.10;63.50;98181.53;5087414;28;20047;-63
2022/06/20 02:36:31;;;;;;;3.72;1.80;;;;;;;19.01;63.53;98201.13;5088216;28;20040;-64
2022/06/20 02:39:38;;;;;;;3.80;1.80;;;;;;;19.05;63.54;98183.84;5098813;28;20050;-65
2022/06/20 02:42:49;;;;;;;5.05;2.40;;;;;;;19.15;63.15;98181.00;5101887;28;20043;-63
2022/06/20 02:45:55;;;;;;;2.55;1.90;;;;;;;19.11;64.15;98172.53;5087710;28;20082;-64
2022/06/20 02:49:03;;;;;;;3.53;2.00;;;;;;;19.36;63.08;98171.56;5089757;28;20070;-62
2022/06/20 02:52:11;;;;;;;3.70;2.03;;;;;;;19.23;63.66;98180.94;5108607;28;20073;-63
2022/06/20 02:55:17;;;;;;;2.53;2.00;;;;;;;19.21;63.28;98180.28;5115283;28;20036;-63
2022/06/20 02:58:25;;;;;;;7.47;1.85;;;;;;;19.25;63.23;98191.38;5099647;28;20047;-64
2022/06/20 03:01:45;;;;;;;3.30;1.88;;;;;;;19.23;62.85;98196.03;5100973;28;20164;-64
2022/06/20 03:04:49;;;;;;;3.67;2.20;;;;;;;19.17;63.10;98202.88;5088130;28;20043;-65
2022/06/20 03:07:53;;;;;;;2.20;1.60;;;;;;;19.19;63.37;98200.91;5097943;28;20047;-62
2022/06/20 03:11:04;;;;;;;3.28;1.98;;;;;;;19.11;63.20;98196.44;5098805;28;20031;-64
2022/06/20 03:14:13;;;;;;;3.40;2.53;;;;;;;18.96;63.61;98194.50;5085910;28;20043;-64
2022/06/20 03:17:20;;;;;;;5.93;2.28;;;;;;;18.82;64.01;98198.72;5110756;28;20039;-64
2022/06/20 03:20:26;;;;;;;3.35;2.10;;;;;;;18.81;63.77;98197.06;5111197;28;20040;-64
2022/06/20 03:23:33;;;;;;;5.55;2.10;;;;;;;18.88;63.21;98191.06;5111357;28;20036;-63
2022/06/20 03:26:36;;;;;;;4.07;2.13;;;;;;;18.83;63.97;98189.75;5103031;28;20100;-63
2022/06/20 03:29:44;;;;;;;2.88;1.98;;;;;;;18.82;63.57;98190.75;5087500;28;20040;-64
2022/06/20 03:32:47;;;;;;;3.20;1.92;;;;;;;18.72;64.36;98190.13;5084726;28;20035;-63
2022/06/20 03:35:59;;;;;;;3.50;1.98;;;;;;;18.75;63.89;98189.81;5096288;28;20066;-64
2022/06/20 03:39:05;;;;;;;3.13;2.28;;;;;;;18.82;63.87;98188.09;5110907;28;20044;-64
2022/06/20 03:42:09;;;;;;;3.47;1.90;;;;;;;18.76;64.31;98186.13;5086979;28;20387;-64
2022/06/20 03:45:14;;;;;;;3.05;2.00;;;;;;;18.84;64.14;98186.09;5093346;28;20040;-64
2022/06/20 03:48:21;;;;;;;5.50;2.15;;;;;;;18.79;64.22;98188.44;5108786;28;20047;-64
2022/06/20 03:51:31;;;;;;;3.95;2.05;;;;;;;18.92;63.98;98187.06;5090774;28;20035;-63
2022/06/20 03:54:46;;;;;;;2.78;2.10;;;;;;;18.86;64.05;98187.75;5115231;28;20214;-64
2022/06/20 03:57:56;;;;;;;4.38;2.10;;;;;;;18.98;63.54;98196.16;5103195;28;20035;-64
2022/06/20 04:01:11;;;;;;;4.55;1.90;;;;;;;18.79;63.55;98195.56;5114639;28;20062;-64
2022/06/20 04:04:40;;;;;;;3.60;2.03;;;;;;;18.74;64.18;98185.47;5115019;28;20110;-63
2022/06/20 04:07:49;;;;;;;3.25;1.92;;;;;;;18.89;64.12;98187.41;5114826;28;20031;-63
2022/06/20 04:11:01;;;;;;;2.33;1.83;;;;;;;18.82;64.03;98196.06;5081875;28;20531;-64
2022/06/20 04:14:17;;;;;;;3.00;1.88;;;;;;;19.00;63.80;98186.22;5114396;28;20062;-63
2022/06/20 04:21:13;;;;;;;5.07;2.22;;;;;;;19.06;64.55;98188.16;5114587;28;20039;-63
2022/06/20 04:24:28;;;;;;;2.72;2.25;;;;;;;19.14;64.07;98184.66;5113996;28;20062;-63
2022/06/20 04:27:41;;;;;;;2.72;2.10;;;;;;;19.28;63.81;98177.75;5115149;28;20039;-63
2022/06/20 04:31:07;;;;;;;3.10;2.17;;;;;;;19.18;64.18;98183.28;5114083;28;20078;-61
2022/06/20 04:34:26;;;;;;;3.28;2.40;;;;;;;19.25;63.97;98186.06;5101178;28;20394;-62
2022/06/20 04:37:38;;;;;;;3.13;2.22;;;;;;;19.14;63.88;98193.47;5115430;28;20084;-62
2022/06/20 04:40:56;;;;;;;3.75;2.20;;;;;;;19.25;63.24;98180.78;5112181;28;20081;-63
2022/06/20 04:44:11;;;;;;;3.38;2.13;;;;;;;19.21;63.55;98188.25;5096463;28;20083;-63
2022/06/20 04:47:15;;;;;;;4.82;2.30;;;;;;;19.17;63.76;98186.97;5089763;28;20040;-63
2022/06/20 04:50:25;;;;;;;4.15;2.25;;;;;;;19.29;63.68;98195.34;5091776;28;20496;-63
2022/06/20 04:53:35;;;;;;;3.30;2.15;;;;;;;19.42;63.44;98195.59;5106921;28;20039;-63
2022/06/20 04:56:40;;;;;;;2.80;2.10;;;;;;;19.55;62.86;98195.00;5125014;28;20051;-64
2022/06/20 04:59:44;;;;;;;2.75;1.88;;;;;;;20.03;61.00;98186.00;5114172;28;20364;-63
2022/06/20 05:02:50;;;;;;;5.30;2.00;;;;;;;19.87;61.83;98194.91;5114224;28;20042;-62
2022/06/20 05:05:56;;;;;;;2.28;1.65;;;;;;;20.03;61.52;98195.78;5114545;28;20466;-63
2022/06/20 05:09:28;;;;;;;2.67;1.85;;;;;;;20.20;61.13;98204.44;5090556;28;20047;-62
2022/06/20 05:12:44;;;;;;;2.95;1.98;;;;;;;20.07;61.57;98207.72;5113580;28;20035;-63
2022/06/20 05:15:50;;;;;;;5.40;2.17;;;;;;;20.25;61.68;98202.06;5096190;28;20043;-61
2022/06/20 05:18:58;;;;;;;4.28;1.92;;;;;;;20.28;60.90;98208.84;5094672;28;20405;-64
2022/06/20 05:22:08;;;;;;;2.55;1.98;;;;;;;20.29;61.32;98200.69;5111381;28;20063;-64
2022/06/20 05:25:17;;;;;;;5.00;2.40;;;;;;;20.52;60.48;98206.94;5109404;28;20035;-64
2022/06/20 05:28:24;;;;;;;5.47;2.63;;;;;;;20.36;61.82;98202.63;5111041;28;20503;-63
2022/06/20 05:31:43;;;;;;;3.08;2.22;;;;;;;20.64;60.63;98208.16;5080294;28;20051;-63
2022/06/20 05:34:56;;;;;;;2.20;1.67;;;;;;;20.54;60.61;98202.25;5086308;28;20077;-63
2022/06/20 05:37:51;;;;;;;4.15;2.17;;;;;;;20.69;60.31;98199.59;5097322;28;20112;-63
2022/06/20 05:40:41;;;;;;;3.03;2.08;;;;;;;20.86;59.67;98204.72;5097835;28;20055;-64
2022/06/20 05:43:28;;;;;;;4.47;2.20;;;;;;;20.90;59.79;98201.50;5110363;28;20067;-63
2022/06/20 05:46:24;;;;;;;3.88;2.20;;;;;;;20.95;60.00;98206.28;5099101;28;20031;-62
2022/06/20 05:49:17;;;;;;;3.55;2.20;;;;;;;20.86;60.62;98199.41;5107511;28;20036;-63
2022/06/20 05:52:06;;;;;;;3.45;2.10;;;;;;;21.05;60.36;98198.81;5086615;28;20135;-63
2022/06/20 05:55:15;;;;;;;3.72;2.10;;;;;;;21.06;59.75;98189.00;5112944;28;20066;-63
2022/06/20 05:58:00;;;;;;;5.47;2.30;;;;;;;21.08;59.88;98197.63;5097351;28;20036;-63
2022/06/20 06:00:47;;;;;;;3.70;2.70;;;;;;;21.25;59.33;98205.41;5096688;28;20413;-63
2022/06/20 06:03:42;;;;;;;3.70;2.40;;;;;;;20.99;60.94;98196.09;5098460;28;20449;-64
2022/06/20 06:06:39;;;;;;;4.53;2.25;;;;;;;21.54;58.76;98191.13;5111929;28;20070;-65
2022/06/20 06:09:52;;;;;;;4.18;1.90;;;;;;;21.66;58.28;98186.13;5104596;28;20035;-64
2022/06/20 06:12:46;;;;;;;4.03;2.30;;;;;;;21.95;58.37;98182.69;5100959;28;20048;-64
2022/06/20 06:15:41;;;;;;;2.88;2.38;;;;;;;21.78;58.65;98178.47;5095966;28;20043;-64
2022/06/20 06:18:26;;;;;;;5.20;2.45;;;;;;;21.89;58.38;98181.59;5111937;28;20070;-64
2022/06/20 06:21:10;;;;;;;5.22;2.63;;;;;;;21.56;59.42;98171.47;5112088;28;20031;-64
2022/06/20 06:23:58;;;;;;;4.10;2.50;;;;;;;21.80;58.75;98169.44;5096299;28;20077;-64
2022/06/20 06:26:45;;;;;;;5.43;2.67;;;;;;;22.18;58.02;98176.28;5086944;28;20532;-64
2022/06/20 06:30:01;;;;;;;4.30;2.58;;;;;;;22.08;58.13;98174.75;5111592;28;20040;-64
2022/06/20 06:32:54;;;;;;;5.60;2.20;;;;;;;22.22;57.43;98181.03;5109757;28;20476;-65
2022/06/20 06:35:48;;;;;;;3.13;2.50;;;;;;;22.11;58.04;98163.72;5096834;28;20458;-64
2022/06/20 06:38:42;;;;;;;4.22;2.58;;;;;;;22.58;57.02;98168.50;5085930;28;20031;-64
2022/06/20 06:41:44;;;;;;;5.80;2.80;;;;;;;22.48;57.20;98176.03;5111090;28;20067;-63
2022/06/20 06:44:48;;;;;;;3.92;2.60;;;;;;;22.56;56.79;98167.88;5093502;28;20035;-64
2022/06/20 06:47:40;;;;;;;6.05;2.50;;;;;;;22.87;56.22;98173.78;5106728;28;20156;-65
2022/06/20 06:50:49;;;;;;;3.72;2.70;;;;;;;22.99;55.42;98168.69;5095907;28;20516;-65
2022/06/20 06:53:43;;;;;;;4.32;2.80;;;;;;;23.26;55.32;98163.38;5082462;28;20048;-65
2022/06/20 06:56:33;;;;;;;6.25;3.55;;;;;;;23.72;53.63;98159.16;5114203;28;20032;-65
2022/06/20 06:59:23;;;;;;;4.32;3.30;;;;;;;23.87;54.02;98155.44;5110981;28;20070;-65
2022/06/20 07:02:16;;;;;;;4.28;2.70;;;;;;;24.22;52.44;98159.75;5091274;28;20111;-65
2022/06/20 07:05:07;;;;;;;7.00;3.00;;;;;;;24.43;51.76;98161.31;5068009;28;20035;-65
2022/06/20 07:07:57;;;;;;;4.68;3.28;;;;;;;24.31;51.66;98160.34;5090848;28;20047;-64
2022/06/20 07:10:55;;;;;;;6.00;3.20;;;;;;;24.63;51.76;98149.72;5094776;28;20489;-64
2022/06/20 07:13:49;;;;;;;5.68;2.97;;;;;;;24.72;51.09;98145.78;5081711;28;20082;-64
2022/06/20 07:16:41;;;;;;;3.50;2.92;;;;;;;24.20;51.91;98145.75;5096121;28;20032;-64
2022/06/20 07:19:26;;;;;;;6.68;3.33;;;;;;;24.76;51.35;98137.34;5087422;28;20043;-63
2022/06/20 07:22:14;;;;;;;6.38;3.30;;;;;;;25.48;50.12;98124.75;5112946;28;20324;-64
2022/06/20 07:25:00;;;;;;;5.90;3.15;;;;;;;24.89;50.35;98120.38;5099908;28;20474;-66
2022/06/20 07:28:00;;;;;;;3.67;2.75;;;;;;;25.17;50.14;98120.00;5100199;28;20048;-65
2022/06/20 07:30:51;;;;;;;4.10;2.40;;;;;;;25.54;49.34;98118.53;5110259;28;20432;-64
2022/06/20 07:34:08;;;;;;;3.72;2.60;;;;;;;25.48;48.62;98114.03;5115325;28;20035;-64
2022/06/20 07:36:57;;;;;;;5.13;2.95;;;;;;;25.43;49.08;98112.00;5115557;28;20442;-64
2022/06/20 07:39:54;;;;;;;4.97;2.35;;;;;;;25.99;47.42;98112.16;5115250;28;20486;-65
2022/06/20 07:43:17;;;;;;;4.72;2.90;;;;;;;25.66;48.52;98110.59;5099989;28;20059;-64
2022/06/20 07:46:12;;;;;;;4.60;2.53;;;;;;;25.85;47.32;98116.00;5088053;28;20158;-65
2022/06/20 07:49:00;;;;;;;3.85;2.70;;;;;;;25.94;48.30;98106.63;5107800;28;20052;-64
2022/06/20 07:51:50;;;;;;;3.65;2.80;;;;;;;25.93;47.69;98113.84;5115540;28;20054;-66
2022/06/20 07:54:50;;;;;;;5.30;3.03;;;;;;;26.01;47.31;98111.94;5103782;28;20382;-64
2022/06/20 07:57:41;;;;;;;3.25;2.60;;;;;;;26.63;45.84;98113.72;5116424;28;20058;-63
2022/06/20 08:00:30;;;;;;;4.40;2.65;;;;;;;27.13;44.36;98106.44;5109484;28;20056;-64
2022/06/20 08:03:26;;;;;;;3.40;2.72;;;;;;;26.46;45.98;98124.25;5115550;28;20036;-64
2022/06/20 08:06:26;;;;;;;3.50;3.00;;;;;;;26.71;45.64;98125.19;5094675;28;20032;-64
2022/06/20 08:09:15;;;;;;;4.15;3.17;;;;;;;26.92;45.67;98119.34;5111325;28;20051;-64
2022/06/20 08:12:33;;;;;;;6.50;2.83;;;;;;;26.63;46.48;98116.41;5091979;28;20079;-64
2022/06/20 08:15:26;;;;;;;5.25;2.80;;;;;;;26.62;46.08;98105.91;5072080;28;20093;-64
2022/06/20 08:18:12;;;;;;;6.10;2.88;;;;;;;27.03;45.45;98103.47;5085233;28;20043;-63
2022/06/20 08:21:04;;;;;;;5.47;2.58;;;;;;;27.22;45.69;98100.75;5114680;28;20082;-64
2022/06/20 08:23:58;;;;;;;5.07;2.63;;;;;;;27.33;45.16;98102.63;5081766;28;20104;-64
2022/06/20 08:26:52;;;;;;;5.93;2.55;;;;;;;27.34;44.98;98095.41;5101973;28;20478;-64
2022/06/20 08:29:49;;;;;;;5.47;2.83;;;;;;;27.65;43.62;98094.22;5114237;28;20055;-65
2022/06/20 08:32:56;;;;;;;3.53;2.60;;;;;;;27.52;45.19;98086.38;5114245;28;20044;-64
2022/06/20 08:36:05;;;;;;;4.15;2.90;;;;;;;27.81;43.64;98100.00;5105739;28;20040;-65
2022/06/20 08:39:02;;;;;;;3.53;2.67;;;;;;;27.89;43.73;98096.13;5098521;28;20085;-65
2022/06/20 08:42:08;;;;;;;3.92;2.60;;;;;;;28.24;43.30;98078.28;5114476;28;20039;-64
2022/06/20 08:45:14;;;;;;;5.47;2.70;;;;;;;28.04;43.24;98085.69;5096122;28;20549;-65
2022/06/20 08:48:17;;;;;;;2.45;2.25;;;;;;;27.69;44.87;98088.41;5095824;28;20092;-64
2022/06/20 08:51:31;;;;;;;4.57;2.58;;;;;;;27.54;45.31;98087.81;5098864;28;20042;-64
2022/06/20 08:54:26;;;;;;;4.05;2.38;;;;;;;28.27;43.50;98089.41;5073844;28;20048;-64
2022/06/20 08:57:52;;;;;;;4.43;2.50;;;;;;;28.47;42.79;98082.81;5075231;28;20039;-64
2022/06/20 09:00:46;;;;;;;4.18;2.78;;;;;;;29.13;42.22;98092.34;5042048;28;20048;-65
2022/06/20 09:04:12;;;;;;;5.13;2.70;;;;;;;29.31;41.40;98084.28;5097692;28;20117;-64
2022/06/20 09:07:25;;;;;;;7.20;2.75;;;;;;;29.97;40.23;98083.66;5103264;28;20047;-65
2022/06/20 09:10:19;;;;;;;4.05;2.65;;;;;;;28.94;41.94;98085.56;5084104;28;20043;-64
2022/06/20 09:13:39;;;;;;;12.50;2.90;;;;;;;29.06;42.51;98082.81;5098671;28;20039;-65
2022/06/20 09:16:53;;;;;;;5.38;2.50;;;;;;;29.94;40.51;98080.63;5093982;28;20052;-64
2022/06/20 09:19:59;;;;;;;4.45;2.20;;;;;;;29.95;41.38;98087.69;5092341;28;20138;-64
2022/06/20 09:22:43;;;;;;;5.32;2.40;;;;;;;29.68;41.49;98088.38;5087165;28;20090;-64
2022/06/20 09:25:31;;;;;;;5.55;2.70;;;;;;;29.80;41.83;98088.28;5081497;28;20040;-64
2022/06/20 09:29:03;;;;;;;3.80;2.70;;;;;;;29.07;42.64;98082.56;5092456;28;20042;-65
2022/06/20 09:32:10;;;;;;;6.47;2.90;;;;;;;30.27;40.04;98088.91;5010644;28;20072;-65
2022/06/20 09:35:10;;;;;;;3.22;2.65;;;;;;;30.46;39.67;98079.41;4996514;28;20054;-65
2022/06/20 09:37:57;;;;;;;3.53;2.40;;;;;;;30.68;39.25;98070.47;5070354;28;20052;-66
2022/06/20 09:40:49;;;;;;;3.25;2.10;;;;;;;30.42;39.06;98070.19;5080698;28;20071;-66
2022/06/20 09:43:42;;;;;;;3.50;2.38;;;;;;;31.13;39.20;98061.41;5062651;28;20077;-64
2022/06/20 09:46:33;;;;;;;7.78;2.40;;;;;;;30.62;38.78;98063.34;5075175;28;20036;-64
2022/06/20 09:49:17;;;;;;;2.63;2.42;;;;;;;31.02;38.93;98055.09;5077278;28;20047;-66
2022/06/20 09:52:38;;;;;;;6.10;2.60;;;;;;;30.46;38.99;98049.69;5102155;28;20489;-65
2022/06/20 09:55:40;;;;;;;4.68;2.33;;;;;;;31.11;38.38;98056.25;5090377;28;20047;-65
2022/06/20 09:58:44;;;;;;;3.13;2.50;;;;;;;30.33;40.57;98063.59;5077989;28;20027;-65
2022/06/20 10:02:06;;;;;;;4.38;2.67;;;;;;;30.32;39.97;98059.28;5083607;28;20079;-65
2022/06/20 10:05:16;;;;;;;2.95;2.50;;;;;;;30.40;39.70;98060.69;5087997;28;20383;-66
2022/06/20 10:08:19;;;;;;;2.80;2.28;;;;;;;30.44;40.16;98056.44;5078203;28;20519;-65
2022/06/20 10:11:14;;;;;;;5.50;2.72;;;;;;;30.13;39.96;98076.56;5056914;28;20044;-64
2022/06/20 10:14:04;;;;;;;4.65;2.40;;;;;;;30.89;38.83;98059.06;5078587;28;20051;-65
2022/06/20 10:16:52;;;;;;;3.75;2.42;;;;;;;30.69;39.78;98055.88;5076688;28;20043;-65
2022/06/20 10:19:42;;;;;;;2.70;2.38;;;;;;;31.84;37.68;98052.16;5084583;28;20075;-65
2022/06/20 10:22:38;;;;;;;4.13;2.72;;;;;;;32.48;36.22;98055.97;5078468;28;20044;-65
2022/06/20 10:25:47;;;;;;;4.60;2.45;;;;;;;31.46;37.20;98075.75;5091550;28;20157;-66
2022/06/20 10:28:45;;;;;;;2.92;2.30;;;;;;;32.09;36.59;98076.94;5076517;28;20043;-65
2022/06/20 10:31:53;;;;;;;4.20;2.45;;;;;;;31.15;38.88;98075.50;5091087;28;20043;-65
2022/06/20 10:34:50;;;;;;;3.22;2.20;;;;;;;32.29;36.36;98094.34;5089600;28;20506;-65
2022/06/20 10:37:42;;;;;;;4.47;2.75;;;;;;;31.89;36.81;98088.47;5091319;28;20470;-64
2022/06/20 10:40:59;;;;;;;4.07;2.40;;;;;;;32.22;37.15;98101.94;5091188;28;20048;-65
2022/06/20 10:43:54;;;;;;;5.05;2.83;;;;;;;32.52;35.86;98114.78;5077938;28;20162;-65
2022/06/20 10:47:02;;;;;;;3.22;2.40;;;;;;;32.44;35.87;98121.50;5089091;28;20388;-65
2022/06/20 10:50:01;;;;;;;2.40;2.08;;;;;;;34.67;34.28;98143.38;5074111;28;20048;-66
2022/06/20 10:53:16;;;;;;;3.77;2.33;;;;;;;34.43;33.99;98167.69;5071143;28;20113;-65
2022/06/20 10:56:10;;;;;;;2.90;2.58;;;;;;;34.10;34.38;98162.59;5089320;28;20056;-67
2022/06/20 10:59:26;;;;;;;3.80;2.70;;;;;;;34.75;34.35;98161.03;5082055;28;20044;-66
2022/06/20 11:02:32;;;;;;;4.20;2.42;;;;;;;34.23;33.55;98170.22;5087800;28;20044;-66
2022/06/20 11:05:49;;;;;;;2.47;2.28;;;;;;;34.91;34.37;98167.22;5090880;28;20067;-67
2022/06/20 11:09:13;;;;;;;7.05;2.20;;;;;;;34.33;33.79;98169.38;5076611;28;20115;-68
2022/06/20 11:12:14;;;;;;;3.45;2.40;;;;;;;34.72;32.69;98158.88;5073115;28;20075;-66
2022/06/20 11:15:20;;;;;;;3.47;1.90;;;;;;;35.17;33.38;98161.63;5090227;28;20043;-66
2022/06/20 11:19:03;;;;;;;3.05;2.30;;;;;;;34.79;33.72;98162.13;5091160;28;20537;-66
2022/06/20 11:22:09;;;;;;;2.40;1.80;;;;;;;35.13;34.75;98164.09;5036403;28;20050;-66
2022/06/20 11:25:14;;;;;;;3.72;2.30;;;;;;;35.96;32.77;98170.78;5105439;28;20432;-66
2022/06/20 11:28:14;;;;;;;3.05;2.40;;;;;;;34.86;33.72;98172.69;5103106;28;20035;-66
2022/06/20 11:31:11;;;;;;;4.95;2.65;;;;;;;34.11;34.13;98170.47;5098972;28;20039;-66
2022/06/20 11:34:23;;;;;;;4.43;2.33;;;;;;;34.69;34.57;98165.72;5096010;28;20036;-67
2022/06/20 11:37:44;;;;;;;5.30;2.72;;;;;;;33.66;36.00;98167.56;5095952;28;20040;-67
2022/06/20 11:40:37;;;;;;;6.18;2.53;;;;;;;34.33;34.63;98161.22;5077201;28;20550;-67
2022/06/20 11:43:54;;;;;;;3.75;2.42;;;;;;;34.03;34.92;98165.63;5111600;28;20040;-67
2022/06/20 11:47:21;;;;;;;5.00;2.80;;;;;;;34.83;34.99;98155.00;5098239;28;20039;-67
2022/06/20 11:50:18;;;;;;;3.83;2.72;;;;;;;34.20;35.57;98156.34;5099109;28;20052;-67
2022/06/20 11:53:23;;;;;;;4.70;2.88;;;;;;;34.59;36.02;98160.28;5094828;28;20093;-69
2022/06/20 11:56:15;;;;;;;6.80;2.67;;;;;;;35.10;34.69;98148.31;5095503;28;20102;-67
2022/06/20 11:59:22;;;;;;;8.30;2.70;;;;;;;34.35;35.95;98144.63;5086863;28;20063;-67
2022/06/20 12:02:39;;;;;;;4.10;2.70;;;;;;;34.45;36.26;98138.34;5099977;28;20047;-67
2022/06/20 12:05:33;;;;;;;4.03;2.30;;;;;;;34.98;36.25;98135.06;5098391;28;20032;-67
2022/06/20 12:08:37;;;;;;;3.22;2.72;;;;;;;34.66;36.61;98128.19;5096882;28;20031;-67
2022/06/20 12:11:31;;;;;;;6.45;3.80;;;;;;;32.96;38.89;98133.56;5099254;28;20047;-66
2022/06/20 12:14:48;;;;;;;8.52;3.13;;;;;;;33.44;39.25;98122.53;5112441;28;20050;-66
2022/06/20 12:17:51;;;;;;;5.72;3.50;;;;;;;33.03;39.18;98137.69;5103829;28;20119;-67
2022/06/20 12:23:53;;;;;;;5.28;3.53;;;;;;;33.36;39.51;98121.16;5114254;28;20467;-65
2022/06/20 12:26:41;;;;;;;7.28;3.47;;;;;;;33.43;40.08;98118.16;5099319;28;20040;-65
2022/06/20 12:29:29;;;;;;;4.97;3.33;;;;;;;33.09;39.86;98127.66;5099615;28;20110;-65
2022/06/20 12:32:23;;;;;;;7.43;3.90;;;;;;;32.28;40.66;98117.94;5105166;28;20556;-64
2022/06/20 12:35:48;;;;;;;7.78;3.78;;;;;;;31.73;42.42;98134.38;5099960;28;20051;-65
2022/06/20 12:38:46;;;;;;;6.13;3.35;;;;;;;31.31;43.57;98130.53;5114241;28;20505;-66
2022/06/20 12:41:37;;;;;;;4.68;3.22;;;;;;;30.74;44.60;98128.91;5089157;28;20068;-66
2022/06/20 12:44:40;;;;;;;9.48;3.50;;;;;;;30.44;46.01;98135.56;5111986;28;20039;-65
2022/06/20 12:47:41;;;;;;;8.65;3.92;;;;;;;30.39;46.79;98132.78;5107671;28;20479;-65
2022/06/20 12:50:50;;;;;;;7.75;4.10;;;;;;;29.49;48.19;98132.56;5104344;28;20046;-66
2022/06/20 12:53:36;;;;;;;6.35;3.85;;;;;;;29.46;48.42;98137.66;5102704;28;20506;-65
2022/06/20 12:56:53;;;;;;;7.15;3.60;;;;;;;29.20;49.52;98156.09;5113301;28;20412;-66
2022/06/20 12:59:47;;;;;;;6.75;3.20;;;;;;;29.58;47.84;98162.69;5083567;28;20039;-65
2022/06/20 13:03:06;;;;;;;6.15;3.42;;;;;;;29.83;47.71;98174.13;5113968;28;20036;-63
2022/06/20 13:05:57;;;;;;;6.43;3.92;;;;;;;30.30;46.62;98166.72;5089633;28;20500;-64
2022/06/20 13:08:57;;;;;;;4.13;3.50;;;;;;;29.83;47.66;98155.25;5116048;28;20042;-64
2022/06/20 13:12:10;;;;;;;8.20;3.63;;;;;;;29.95;47.93;98150.56;5116470;28;20048;-66
2022/06/20 13:15:01;;;;;;;4.47;3.53;;;;;;;30.28;47.25;98139.97;5113447;28;20035;-64
2022/06/20 13:18:14;;;;;;;4.75;3.20;;;;;;;31.51;44.33;98131.78;5114412;28;20475;-65
2022/06/20 13:21:09;;;;;;;5.15;3.10;;;;;;;31.91;41.65;98126.94;5079888;28;20031;-65
2022/06/20 13:23:57;;;;;;;5.88;3.22;;;;;;;32.56;41.01;98118.59;5088575;28;20111;-65
2022/06/20 13:27:15;;;;;;;6.00;3.22;;;;;;;32.78;39.70;98136.53;5098446;28;20039;-64
2022/06/20 13:30:13;;;;;;;7.32;3.30;;;;;;;32.16;41.42;98134.41;5102614;28;20223;-64
2022/06/20 13:33:24;;;;;;;5.13;2.95;;;;;;;32.79;39.44;98131.94;5113324;28;20039;-65
2022/06/20 13:36:17;;;;;;;5.70;2.85;;;;;;;33.13;38.91;98142.31;5089034;28;20039;-65
2022/06/20 13:39:30;;;;;;;6.97;3.40;;;;;;;33.92;36.65;98143.94;5099591;28;20122;-65
2022/06/20 13:42:36;;;;;;;5.13;2.22;;;;;;;33.36;36.58;98137.44;5096570;28;20130;-64
2022/06/20 13:45:30;;;;;;;4.65;2.30;;;;;;;33.39;36.28;98150.47;5102883;28;20487;-66
2022/06/20 13:48:37;;;;;;;6.35;2.38;;;;;;;32.94;35.46;98142.81;5099967;28;20047;-65
2022/06/20 13:51:33;;;;;;;7.68;1.75;;;;;;;32.40;34.57;98141.28;5097640;28;20471;-65
2022/06/20 13:54:21;;;;;;;5.03;1.58;;;;;;;32.36;34.89;98146.41;5096925;28;20040;-65
2022/06/20 13:57:19;;;;;;;3.58;1.60;;;;;;;32.63;35.13;98142.72;5112390;28;20043;-66
2022/06/20 14:00:16;;;;;;;4.00;1.65;;;;;;;32.94;34.28;98144.69;5097087;28;20070;-66
2022/06/20 14:03:10;;;;;;;3.33;1.30;;;;;;;32.92;33.78;98119.75;5096722;28;20031;-66
2022/06/20 14:06:11;;;;;;;6.13;1.70;;;;;;;33.45;33.38;98116.00;5112412;28;20040;-65
2022/06/20 14:09:00;;;;;;;3.42;1.27;;;;;;;33.82;32.81;98111.34;5102330;28;20093;-65
2022/06/20 14:11:52;;;;;;;3.70;1.40;;;;;;;33.50;34.00;98099.72;5107455;28;20109;-65
2022/06/20 14:14:45;;;;;;;4.32;1.75;;;;;;;32.78;34.41;98109.44;5106227;28;20410;-65
2022/06/20 14:17:33;;;;;;;7.82;1.90;;;;;;;32.89;33.85;98104.00;5098455;28;20123;-67
2022/06/20 14:20:23;;;;;;;4.80;1.50;;;;;;;32.86;34.18;98097.25;5111953;28;20052;-65
2022/06/20 14:23:17;;;;;;;3.13;1.30;;;;;;;32.85;34.39;98101.03;5112645;28;20052;-64
2022/06/20 14:26:27;;;;;;;4.05;1.38;;;;;;;32.30;35.70;98101.41;5101835;28;20043;-65
2022/06/20 14:29:26;;;;;;;2.85;1.70;;;;;;;32.20;36.07;98105.69;5100037;28;20039;-66
2022/06/20 14:32:19;;;;;;;2.57;1.73;;;;;;;32.32;35.70;98085.69;5111913;28;20042;-65